createdAt,value
2022-08-20T00:00:27.910Z,79.08
2022-08-20T00:03:13.495Z,79.42
2022-08-20T00:06:09.917Z,79.93
2022-08-20T00:08:57.871Z,79.88
2022-08-20T00:11:44.852Z,80.04
2022-08-20T00:14:31.902Z,80.21
2022-08-20T00:17:14.387Z,80.28
2022-08-20T00:20:00.864Z,80.21
2022-08-20T00:22:41.311Z,80.78
2022-08-20T00:25:28.887Z,80.60
2022-08-20T00:28:23.857Z,80.73
2022-08-20T00:31:12.881Z,81.06
2022-08-20T00:33:54.010Z,81.43
2022-08-20T00:36:40.874Z,81.18
2022-08-20T00:39:27.871Z,81.00
2022-08-20T00:42:14.862Z,80.52
2022-08-20T00:45:01.825Z,80.48
2022-08-20T00:47:51.167Z,79.92
2022-08-20T00:50:40.967Z,79.04
2022-08-20T00:53:29.859Z,78.53
2022-08-20T00:56:18.815Z,78.33
2022-08-20T00:59:07.801Z,78.17
2022-08-20T01:01:55.107Z,78.00
2022-08-20T01:04:37.169Z,77.95
2022-08-20T01:07:26.802Z,77.96
2022-08-20T01:10:26.269Z,77.43
2022-08-20T01:13:16.819Z,77.01
2022-08-20T01:16:05.825Z,77.12
2022-08-20T01:18:54.822Z,76.96
2022-08-20T01:21:46.861Z,76.17
2022-08-20T01:24:40.837Z,76.53
2022-08-20T01:27:35.775Z,76.85
2022-08-20T01:30:33.787Z,76.82
2022-08-20T01:33:20.790Z,76.89
2022-08-20T01:36:01.720Z,77.26
2022-08-20T01:38:53.199Z,77.60
2022-08-20T01:42:00.846Z,77.80
2022-08-20T01:44:51.807Z,77.81
2022-08-20T01:47:33.671Z,77.73
2022-08-20T01:50:39.769Z,77.64
2022-08-20T01:53:40.781Z,77.40
2022-08-20T01:56:30.777Z,77.33
2022-08-20T01:59:18.787Z,77.46
2022-08-20T02:02:00.382Z,77.53
2022-08-20T02:04:47.762Z,77.94
2022-08-20T02:07:36.779Z,77.85
2022-08-20T02:10:24.777Z,77.43
2022-08-20T02:13:09.714Z,77.34
2022-08-20T02:15:56.754Z,77.19
2022-08-20T02:18:44.715Z,77.27
2022-08-20T02:21:34.781Z,77.23
2022-08-20T02:24:21.733Z,77.52
2022-08-20T02:27:08.761Z,76.75
2022-08-20T02:30:03.716Z,77.11
2022-08-20T02:32:51.727Z,76.92
2022-08-20T02:35:43.760Z,77.31
2022-08-20T02:38:30.747Z,78.04
2022-08-20T02:41:17.756Z,78.29
2022-08-20T02:43:58.427Z,78.33
2022-08-20T02:46:45.752Z,78.24
2022-08-20T02:49:26.155Z,78.55
2022-08-20T02:52:12.719Z,78.65
2022-08-20T02:54:59.719Z,78.69
2022-08-20T02:57:46.718Z,78.73
2022-08-20T03:00:38.394Z,78.68
2022-08-20T03:03:29.698Z,78.80
2022-08-20T03:26:08.713Z,81.04
2022-08-20T03:28:49.390Z,79.98
2022-08-20T03:31:36.722Z,79.19
2022-08-20T03:34:23.832Z,78.88
2022-08-20T03:37:03.687Z,78.94
2022-08-20T03:39:50.862Z,78.74
2022-08-20T03:42:30.704Z,78.73
2022-08-20T03:45:16.058Z,78.43
2022-08-20T03:48:08.694Z,77.81
2022-08-20T03:50:57.681Z,77.47
2022-08-20T03:53:37.835Z,77.64
2022-08-20T03:56:24.698Z,77.65
2022-08-20T03:59:04.755Z,76.61
2022-08-20T04:01:51.714Z,75.69
2022-08-20T04:04:31.791Z,75.23
2022-08-20T04:07:21.684Z,74.42
2022-08-20T04:10:10.673Z,72.88
2022-08-20T04:12:53.152Z,71.66
2022-08-20T04:15:39.653Z,71.72
2022-08-20T04:18:27.661Z,69.92
2022-08-20T04:21:07.788Z,69.37
2022-08-20T04:24:01.686Z,68.52
2022-08-20T04:26:42.486Z,66.59
2022-08-20T04:29:32.471Z,65.78
2022-08-20T04:32:21.338Z,65.33
2022-08-20T04:35:01.666Z,64.57
2022-08-20T04:37:49.684Z,63.14
2022-08-20T04:40:48.680Z,62.14
2022-08-20T04:43:43.631Z,61.90
2022-08-20T04:46:25.666Z,60.71
2022-08-20T04:49:13.641Z,59.75
2022-08-20T04:51:54.761Z,58.48
2022-08-20T04:54:42.637Z,57.54
2022-08-20T04:57:22.624Z,56.86
2022-08-20T05:00:02.733Z,56.11
2022-08-20T05:02:50.634Z,56.06
2022-08-20T05:05:31.015Z,55.04
2022-08-20T05:08:20.102Z,53.71
2022-08-20T05:11:32.619Z,51.74
2022-08-20T05:14:09.787Z,50.80
2022-08-20T05:16:50.853Z,48.28
2022-08-20T05:19:39.609Z,47.88
2022-08-20T05:22:26.602Z,46.49
2022-08-20T05:25:17.573Z,44.75
2022-08-20T05:28:10.617Z,43.46
2022-08-20T05:30:52.740Z,42.63
2022-08-20T05:33:40.615Z,41.24
2022-08-20T05:36:21.737Z,39.62
2022-08-20T05:39:08.594Z,39.25
2022-08-20T05:41:51.298Z,38.30
2022-08-20T05:44:38.607Z,38.25
2022-08-20T05:47:19.014Z,37.59
2022-08-20T05:50:08.548Z,36.28
2022-08-20T05:52:49.037Z,35.76
2022-08-20T05:55:35.553Z,35.66
2022-08-20T05:58:22.760Z,34.28
2022-08-20T06:01:09.548Z,34.05
2022-08-20T06:04:15.569Z,35.08
2022-08-20T06:07:02.548Z,33.57
2022-08-20T06:09:44.534Z,31.63
2022-08-20T06:12:31.577Z,28.43
2022-08-20T06:15:19.532Z,28.63
2022-08-20T06:18:13.013Z,27.55
2022-08-20T06:21:07.004Z,27.01
2022-08-20T06:23:57.436Z,28.03
2022-08-20T06:26:53.534Z,30.41
2022-08-20T06:29:34.499Z,31.88
2022-08-20T06:32:31.711Z,32.51
2022-08-20T06:35:19.413Z,32.77
2022-08-20T06:38:07.536Z,30.60
2022-08-20T06:40:54.520Z,29.51
2022-08-20T06:43:34.943Z,36.28
2022-08-20T06:46:21.523Z,38.91
2022-08-20T06:49:10.544Z,40.36
2022-08-20T06:51:57.487Z,40.28
2022-08-20T06:54:44.502Z,38.77
2022-08-20T06:57:24.938Z,38.32
2022-08-20T07:00:20.498Z,38.02
2022-08-20T07:03:01.248Z,38.27
2022-08-20T07:05:51.499Z,37.07
2022-08-20T07:08:31.598Z,36.26
2022-08-20T07:11:18.514Z,36.67
2022-08-20T07:13:58.824Z,36.04
2022-08-20T07:16:45.520Z,35.58
2022-08-20T07:19:25.803Z,36.72
2022-08-20T07:22:12.481Z,37.53
2022-08-20T07:24:52.678Z,36.75
2022-08-20T07:27:40.478Z,37.60
2022-08-20T07:30:56.653Z,38.51
2022-08-20T07:33:46.496Z,37.05
2022-08-20T07:36:30.591Z,36.41
2022-08-20T07:39:17.499Z,37.30
2022-08-20T07:42:03.682Z,36.83
2022-08-20T07:44:50.493Z,37.07
2022-08-20T07:47:30.645Z,37.56
2022-08-20T07:50:20.437Z,36.90
2022-08-20T07:53:01.334Z,38.31
2022-08-20T07:55:57.135Z,36.29
2022-08-20T07:58:40.830Z,38.96
2022-08-20T08:01:32.466Z,40.22
2022-08-20T08:04:19.415Z,43.21
2022-08-20T08:07:07.430Z,43.87
2022-08-20T08:09:54.462Z,44.37
2022-08-20T08:12:41.851Z,43.48
2022-08-20T08:15:39.444Z,43.83
2022-08-20T08:18:32.440Z,42.26
2022-08-20T08:21:16.023Z,43.91
2022-08-20T08:24:02.431Z,45.77
2022-08-20T08:26:53.126Z,43.65
2022-08-20T08:29:32.400Z,46.20
2022-08-20T08:32:19.400Z,44.14
2022-08-20T08:35:06.440Z,45.91
2022-08-20T08:37:46.812Z,43.94
2022-08-20T08:40:35.413Z,45.06
2022-08-20T08:43:17.294Z,48.51
2022-08-20T08:46:13.401Z,49.73
2022-08-20T08:49:04.438Z,49.08
2022-08-20T08:51:51.564Z,47.65
2022-08-20T08:54:40.393Z,46.79
2022-08-20T08:57:27.379Z,46.77
2022-08-20T09:00:14.238Z,46.74
2022-08-20T09:03:21.362Z,48.34
2022-08-20T09:06:03.121Z,49.82
2022-08-20T09:08:55.393Z,50.18
2022-08-20T09:11:50.081Z,49.11
2022-08-20T09:14:37.390Z,48.89
2022-08-20T09:17:27.400Z,47.68
2022-08-20T09:20:16.454Z,47.68
2022-08-20T09:23:03.359Z,46.77
2022-08-20T09:25:57.374Z,45.91
2022-08-20T09:28:38.026Z,45.94
2022-08-20T09:31:25.375Z,46.74
2022-08-20T09:34:06.330Z,47.59
2022-08-20T09:36:53.358Z,47.54
2022-08-20T09:39:33.844Z,49.74
2022-08-20T09:42:41.540Z,52.01
2022-08-20T09:45:28.366Z,53.81
2022-08-20T09:48:16.351Z,51.49
2022-08-20T09:51:04.338Z,51.53
2022-08-20T09:53:44.535Z,50.73
2022-08-20T09:56:31.359Z,49.51
2022-08-20T09:59:18.357Z,51.42
2022-08-20T10:02:05.417Z,51.49
2022-08-20T10:04:45.425Z,50.85
2022-08-20T10:07:33.317Z,50.41
2022-08-20T10:10:16.488Z,49.52
2022-08-20T10:13:03.334Z,49.62
2022-08-20T10:15:50.362Z,48.90
2022-08-20T10:18:30.795Z,48.37
2022-08-20T10:21:17.338Z,49.17
2022-08-20T10:24:05.310Z,50.47
2022-08-20T10:26:52.429Z,50.91
2022-08-20T10:29:33.306Z,49.82
2022-08-20T10:32:16.253Z,48.91
2022-08-20T10:35:03.301Z,50.75
2022-08-20T10:37:50.465Z,50.07
2022-08-20T10:40:30.317Z,50.95
2022-08-20T10:43:17.595Z,50.38
2022-08-20T10:45:58.491Z,52.15
2022-08-20T10:48:45.647Z,52.67
2022-08-20T10:51:32.786Z,52.71
2022-08-20T10:54:20.306Z,52.46
2022-08-20T10:57:00.419Z,51.50
2022-08-20T10:59:50.304Z,51.44
2022-08-20T11:02:31.437Z,53.24
2022-08-20T11:05:18.305Z,54.96
2022-08-20T11:07:59.915Z,53.95
2022-08-20T11:10:47.263Z,54.38
2022-08-20T11:13:34.267Z,55.90
2022-08-20T11:16:21.460Z,55.12
2022-08-20T11:19:02.290Z,54.41
2022-08-20T11:21:49.242Z,54.62
2022-08-20T11:24:36.271Z,62.12
2022-08-20T11:27:35.009Z,65.21
2022-08-20T11:30:28.276Z,67.69
2022-08-20T11:33:15.264Z,70.06
2022-08-20T11:36:02.200Z,68.02
2022-08-20T11:38:42.919Z,67.64
2022-08-20T11:41:29.253Z,68.99
2022-08-20T11:44:21.112Z,68.18
2022-08-20T11:47:10.246Z,66.33
2022-08-20T11:50:02.281Z,68.46
2022-08-20T11:52:49.243Z,69.26
2022-08-20T11:55:36.232Z,67.46
2022-08-20T11:58:16.373Z,69.05
2022-08-20T12:01:03.178Z,70.92
2022-08-20T12:03:50.226Z,69.83
2022-08-20T12:06:31.412Z,70.16
2022-08-20T12:09:20.761Z,68.89
2022-08-20T12:12:04.045Z,70.52
2022-08-20T12:14:51.205Z,70.06
2022-08-20T12:17:32.842Z,69.61
2022-08-20T12:20:24.203Z,69.22
2022-08-20T12:23:04.890Z,67.16
2022-08-20T12:25:51.209Z,67.14
2022-08-20T12:28:32.435Z,66.62
2022-08-20T12:31:19.177Z,67.03
2022-08-20T12:33:59.597Z,66.88
2022-08-20T12:36:46.193Z,68.08
2022-08-20T12:39:26.595Z,69.59
2022-08-20T12:42:14.214Z,69.55
2022-08-20T12:44:54.950Z,69.13
2022-08-20T12:47:47.238Z,69.52
2022-08-20T12:50:31.310Z,69.73
2022-08-20T12:53:19.150Z,69.60
2022-08-20T12:55:59.794Z,69.95
2022-08-20T12:58:46.197Z,70.14
2022-08-20T13:01:26.614Z,71.09
2022-08-20T13:04:13.155Z,71.14
2022-08-20T13:06:53.543Z,70.60
2022-08-20T13:09:42.205Z,71.14
2022-08-20T13:12:22.550Z,71.22
2022-08-20T13:15:09.159Z,70.12
2022-08-20T13:18:04.179Z,68.65
2022-08-20T13:20:44.322Z,68.93
2022-08-20T13:23:31.114Z,69.25
2022-08-20T13:26:25.105Z,70.35
2022-08-20T13:29:05.530Z,70.13
2022-08-20T13:31:52.137Z,71.53
2022-08-20T13:34:39.110Z,71.49
2022-08-20T13:37:30.148Z,71.89
2022-08-20T13:40:11.843Z,71.21
2022-08-20T13:43:01.247Z,72.11
2022-08-20T13:45:44.572Z,72.39
2022-08-20T13:48:31.155Z,71.83
2022-08-20T13:51:19.059Z,71.85
2022-08-20T13:53:59.129Z,70.46
2022-08-20T13:56:46.121Z,70.29
2022-08-20T13:59:26.321Z,70.66
2022-08-20T14:02:15.117Z,70.03
2022-08-20T14:04:56.269Z,69.56
2022-08-20T14:07:43.104Z,69.79
2022-08-20T14:10:32.648Z,68.79
2022-08-20T14:13:19.109Z,69.60
2022-08-20T14:15:59.259Z,69.93
2022-08-20T14:18:47.997Z,72.07
2022-08-20T14:21:32.191Z,71.22
2022-08-20T14:24:19.076Z,69.63
2022-08-20T14:27:13.050Z,71.09
2022-08-20T14:30:00.025Z,71.76
2022-08-20T14:32:40.209Z,72.49
2022-08-20T14:35:28.047Z,70.87
2022-08-20T14:38:15.070Z,71.17
2022-08-20T14:41:02.187Z,71.65
2022-08-20T14:43:42.062Z,71.01
2022-08-20T14:46:29.098Z,68.44
2022-08-20T14:49:11.182Z,69.02
2022-08-20T14:51:58.082Z,69.49
2022-08-20T14:54:38.238Z,70.81
2022-08-20T14:57:26.055Z,70.39
2022-08-20T15:00:08.426Z,70.69
2022-08-20T15:02:55.175Z,70.04
2022-08-20T15:05:35.165Z,70.00
2022-08-20T15:08:28.412Z,69.58
2022-08-20T15:28:12.074Z,73.42
2022-08-20T15:30:52.553Z,73.26
2022-08-20T15:33:39.018Z,73.69
2022-08-20T15:36:26.024Z,73.09
2022-08-20T15:39:13.062Z,73.90
2022-08-20T15:42:00.011Z,73.29
2022-08-20T15:44:49.095Z,73.77
2022-08-20T15:47:56.059Z,73.48
2022-08-20T15:51:38.038Z,72.90
2022-08-20T15:54:30.030Z,72.99
2022-08-20T15:57:17.460Z,73.35
2022-08-20T16:00:20.061Z,73.37
2022-08-20T16:03:12.444Z,73.71
2022-08-20T16:06:15.041Z,73.28
2022-08-20T16:09:11.030Z,74.28
2022-08-20T16:12:08.692Z,73.85
2022-08-20T16:15:00.000Z,74.24
2022-08-20T16:17:44.008Z,73.51
2022-08-20T16:20:40.996Z,73.94
2022-08-20T16:23:28.088Z,74.82
2022-08-20T16:26:53.008Z,74.83
2022-08-20T16:29:35.993Z,75.31
2022-08-20T16:32:30.999Z,75.83
2022-08-20T16:35:30.107Z,76.13
2022-08-20T16:38:32.023Z,76.36
2022-08-20T16:41:27.097Z,76.43
2022-08-20T16:44:16.016Z,77.27
2022-08-20T16:47:14.037Z,77.65
2022-08-20T16:50:08.096Z,77.62
2022-08-20T16:52:58.150Z,77.53
2022-08-20T16:55:39.141Z,78.09
2022-08-20T16:58:25.970Z,77.94
2022-08-20T17:01:21.171Z,77.61
2022-08-20T17:04:07.941Z,77.84
2022-08-20T17:07:00.960Z,78.05
2022-08-20T17:09:49.986Z,78.13
2022-08-20T17:12:34.094Z,77.98
2022-08-20T17:15:36.987Z,77.80
2022-08-20T17:18:27.571Z,78.54
2022-08-20T17:21:29.983Z,78.21
2022-08-20T17:24:16.748Z,78.14
2022-08-20T17:27:10.317Z,78.54
2022-08-20T17:30:06.972Z,78.44
2022-08-20T17:33:00.890Z,78.55
2022-08-20T17:35:55.955Z,79.00
2022-08-20T17:39:00.055Z,79.56
2022-08-20T17:41:41.937Z,79.90
2022-08-20T17:44:36.946Z,79.82
2022-08-20T17:47:28.931Z,79.91
2022-08-20T17:50:18.763Z,79.68
2022-08-20T17:53:09.946Z,80.28
2022-08-20T17:55:54.706Z,80.89
2022-08-20T17:59:23.903Z,80.34
2022-08-20T18:02:23.911Z,80.25
2022-08-20T18:05:11.899Z,80.33
2022-08-20T18:08:04.369Z,80.22
2022-08-20T18:11:05.904Z,80.60
2022-08-20T18:14:24.890Z,80.36
2022-08-20T18:17:46.907Z,80.13
2022-08-20T18:20:40.896Z,80.52
2022-08-20T18:23:21.212Z,80.57
2022-08-20T18:26:16.926Z,79.82
2022-08-20T18:29:09.055Z,79.85
2022-08-20T18:32:07.884Z,79.67
2022-08-20T18:34:54.892Z,79.52
2022-08-20T18:37:43.846Z,79.60
2022-08-20T18:40:31.274Z,79.55
2022-08-20T18:43:27.877Z,79.76
2022-08-20T18:46:19.013Z,79.69
2022-08-20T18:49:09.872Z,79.47
2022-08-20T18:51:51.233Z,79.23
2022-08-20T18:54:43.868Z,79.76
2022-08-20T18:57:26.938Z,79.32
2022-08-20T19:00:30.653Z,79.73
2022-08-20T19:03:23.917Z,79.66
2022-08-20T19:06:22.050Z,79.92
2022-08-20T19:09:31.866Z,80.94
2022-08-20T19:12:39.971Z,80.46
2022-08-20T19:15:31.847Z,80.61
2022-08-20T19:18:32.847Z,80.83
2022-08-20T19:21:22.825Z,80.65
2022-08-20T19:24:06.234Z,81.01
2022-08-20T19:27:02.862Z,80.86
2022-08-20T19:30:02.997Z,80.32
2022-08-20T19:32:59.059Z,80.21
2022-08-20T19:35:38.931Z,80.14
2022-08-20T19:38:25.850Z,80.49
2022-08-20T19:41:11.584Z,80.44
2022-08-20T19:44:02.789Z,80.13
2022-08-20T19:46:55.833Z,79.99
2022-08-20T19:49:45.361Z,80.19
2022-08-20T19:52:51.804Z,80.27
2022-08-20T19:55:41.785Z,80.39
2022-08-20T19:58:27.220Z,80.04
2022-08-20T20:01:26.830Z,79.63
2022-08-20T20:04:09.933Z,79.77
2022-08-20T20:06:56.810Z,80.22
2022-08-20T20:09:36.905Z,80.21
2022-08-20T20:12:23.783Z,79.77
2022-08-20T20:15:10.771Z,79.53
2022-08-20T20:17:53.305Z,79.72
2022-08-20T20:20:55.939Z,79.79
2022-08-20T20:23:46.671Z,79.52
2022-08-20T20:26:33.806Z,79.97
2022-08-20T20:29:33.786Z,79.93
2022-08-20T20:32:26.937Z,79.98
2022-08-20T20:35:13.735Z,80.63
2022-08-20T20:38:14.773Z,80.39
2022-08-20T20:41:04.740Z,80.58
2022-08-20T20:43:48.948Z,81.28
2022-08-20T20:46:36.765Z,80.94
2022-08-20T20:49:18.930Z,81.25
2022-08-20T20:52:15.031Z,80.95
2022-08-20T20:55:01.733Z,81.35
2022-08-20T20:57:42.259Z,81.52
2022-08-20T21:00:30.740Z,81.59
2022-08-20T21:03:11.121Z,81.82
2022-08-20T21:05:57.771Z,81.90
2022-08-20T21:08:38.297Z,81.90
2022-08-20T21:11:25.738Z,82.09
2022-08-20T21:14:12.724Z,82.73
2022-08-20T21:16:52.881Z,82.70
2022-08-20T21:19:44.926Z,82.90
2022-08-20T21:22:33.753Z,82.60
2022-08-20T21:25:14.751Z,82.92
2022-08-20T21:28:04.756Z,82.91
2022-08-20T21:30:51.737Z,83.03
2022-08-20T21:33:38.839Z,83.41
2022-08-20T21:36:25.713Z,83.57
2022-08-20T21:39:05.837Z,83.48
2022-08-20T21:41:52.730Z,83.57
2022-08-20T21:44:49.407Z,83.62
2022-08-20T21:47:30.137Z,83.91
2022-08-20T21:50:18.619Z,84.08
2022-08-20T21:53:12.309Z,84.41
2022-08-20T21:55:52.824Z,84.25
2022-08-20T21:58:39.686Z,84.49
2022-08-20T22:01:20.849Z,84.64
2022-08-20T22:04:07.673Z,84.71
2022-08-20T22:06:47.803Z,84.47
2022-08-20T22:09:34.666Z,84.51
2022-08-20T22:12:29.837Z,85.04
2022-08-20T22:15:16.681Z,84.63
2022-08-20T22:17:56.769Z,84.53
2022-08-20T22:20:45.672Z,84.23
2022-08-20T22:23:25.799Z,84.28
2022-08-20T22:26:13.642Z,85.02
2022-08-20T22:29:07.682Z,84.75
2022-08-20T22:31:48.425Z,84.79
2022-08-20T22:34:35.673Z,84.55
2022-08-20T22:37:22.641Z,84.49
2022-08-20T22:40:02.855Z,84.42
2022-08-20T22:42:49.637Z,85.07
2022-08-20T22:45:36.655Z,85.07
2022-08-20T22:48:26.647Z,85.12
2022-08-20T22:51:07.734Z,86.18
2022-08-20T22:53:56.620Z,85.57
2022-08-20T22:56:43.593Z,85.55
2022-08-20T22:59:31.625Z,85.53
2022-08-20T23:02:19.807Z,85.44
2022-08-20T23:05:06.572Z,85.34
2022-08-20T23:07:50.713Z,85.73
2022-08-20T23:10:41.613Z,86.10
2022-08-20T23:13:28.617Z,85.68
2022-08-20T23:16:15.597Z,85.47
2022-08-20T23:18:55.725Z,85.01
2022-08-20T23:21:42.596Z,84.67
2022-08-20T23:24:29.571Z,85.05
2022-08-20T23:27:12.592Z,85.58
2022-08-20T23:29:59.577Z,86.16
2022-08-20T23:32:39.772Z,85.90
2022-08-20T23:35:32.175Z,85.80
2022-08-20T23:38:20.595Z,85.77
2022-08-20T23:41:07.595Z,86.35
2022-08-20T23:43:47.689Z,87.15
2022-08-20T23:46:40.551Z,86.75
2022-08-20T23:49:27.557Z,87.82
2022-08-20T23:52:07.962Z,88.34
2022-08-20T23:54:54.564Z,88.76
2022-08-20T23:57:35.043Z,89.32
